Weather at Hradec Králové Airport

Public forecast

Using degrees Celsius for public forecast. Weather courtesy of forecast.io.

Closest aviation weather report (METAR) to Hradec Králové Airport

Closest report is Pardubice Airport, 15.0 nm (27.7 km) SSW. Retrieved 2021/07/24 00:00 UTC (49 minutes ago):

LKPD 240000Z VRB02KT CAVOK 15/12 Q1015

Closest aviation forecast (TAF) to Hradec Králové Airport

Forecast is more than 6 hours old.

Closest forecast is Pardubice Airport, 15.0 nm (27.7 km) SSW. Retrieved 2021/07/23 18:04 UTC (7 hours ago):

TAF LKPD 231700Z 2318/2418 10005KT CAVOK PROB40 TEMPO 2320/2406 VRB02KT BECMG 2409/2412 09008KT